メインページ
METAR-TAF:

METAR-TAF

空港 :

ペルー, インディアナ州, アメリカ合衆国

緯度: 40-39N, 経度: 086-09W, 海抜: 247m

現時点の気象観測

当レポートは54分前の03:56(UTC)に作成
西/南西の風 5kt
気温 21°C
湿度 100%
気圧 1015 hPa
視程: 16.1km
高度7000ftの雲はほとんどない

METAR: KGUS 210356Z AUTO 25005KT 10SM FEW070 21/21 A2997 RMK AO2 SLPNO T02110211 $

時間: 00:50 (04:50 UTC)

予報

当レポートは1時間50分前の03:00(UTC)に作成
予報は21日の 03時(UTC)から 22日の 09時(UTC)まで有効
南西の風 9kt
視程: 8000m
高度1000ftの雲は散在している
高度2000ftの千切れ雲あり
弱いにわか雨
21日の 03時(UTC)から 21日の 07時(UTC)まで一時的に
視程10km以上
高度1000ftの千切れ雲あり
21日の 06時(UTC)から 21日の 07時(UTC)まで徐々に
西の風 9kt
視程: 8000m
高度500ftの千切れ雲あり
21日の 09時(UTC)から 21日の 10時(UTC)まで徐々に
西の風 6kt
視程10km以上
高度300ftの雲は散在している
22日の 01時(UTC)から 22日の 02時(UTC)まで徐々に
変向風 6kt
視程10km以上
高度2000ftの千切れ雲あり

TAF: KGUS 210300Z 2103/2209 23009KT 8000 -SHRA SCT010 BKN020 QNH2995INS TEMPO 2103/2107 9999 BKN010 BECMG 2106/2107 27009KT 8000 BR BKN005 QNH2995INS BECMG 2109/2110 26006KT 9999 NSW SCT003 QNH2998INS BECMG 2201/2202 VRB06KT 9999 BKN020 QNH2992INS TX27/2120Z TN19/2111Z

4,000以上の空港の気象観測と天気予報(METAR報とTAF報)

利用可能な観測所は地図上に黄色い丸と赤い丸で示す。

丸の上にカーソルを重ねると観測所名を参照できる。

次にクリックすると気象観測と天気予報を参照できる。

マップの切り替え:黒色「×」印の緑ボタンをクリックして拡大、「-」印の緑ボタンをクリックして縮小、緑色の三角印をクリックして隣りの地図に切り替え


METAR-TAF: